Weather History for KFSE - September, 2011

Change the Weather History Date:

Wednesday, September 7, 2011

  Actual Average Record
Temperature  
Mean Temperature 65 °F -  
Max Temperature 82 °F 73 °F 95 °F (1976)
Min Temperature 48 °F 48 °F 29 °F (1979)
Growing Degree Days 15 (Base 50)    
Moisture  
Dew Point 57 °F    
Average Humidity 75    
Maximum Humidity 100    
Minimum Humidity 42    
Precipitation  
Precipitation 0.00 in - - ()
Sea Level Pressure  
Sea Level Pressure 30.24 in    
Wind  
Wind Speed 1 mph (ESE)    
Max Wind Speed 7 mph    
Max Gust Speed -    
Visibility 10 miles    
Events      
Averages and records for this station are not official NWS values.
T = Trace of Precipitation, MM = Missing Value Source: NWS Daily Summary

Daily Weather History Graph

Daily Weather History Graph

Search for Another Location

Airport or City:

Trip Planner

Search our weather history database for the weather conditions in past years. The results will help you decide how hot, cold, wet, or windy it might be!

Date:

Astronomy

Sep. 07, 2011 Rise Set
Actual Time 6:49 AM CDT 7:51 PM CDT
Civil Twilight 6:17 AM CDT 8:23 PM CDT
Nautical Twilight 5:40 AM CDT 9:01 PM CDT
Astronomical Twilight 4:59 AM CDT 9:40 PM CDT
Moon 5:25 PM CDT (9/7) 1:49 AM CDT (9/7)
Length of Visible Light 14h 05m
Length of Day
13h 02m
Waxing Gibbous, 80% of the Moon is Illuminated
Sep 7
Waxing Gibbous
Sep 12
Full
Sep 20
Last Quarter
Sep 27
New
Oct 3
First Quarter

Hourly Weather History & Observations

Time (CDT) Temp. Heat Index Dew Point Humidity Pressure Visibility Wind Dir Wind Speed Gust Speed Precip Events Conditions
12:13 AM 55.4 °F - 51.8 °F 88% 30.14 in 10.0 mi SSE 6.9 mph - N/A   Clear
12:34 AM 55.4 °F - 50.0 °F 82% 30.15 in 10.0 mi Calm Calm - N/A   Clear
12:53 AM 53.6 °F - 50.0 °F 88% 30.15 in 10.0 mi Calm Calm - N/A   Clear
1:13 AM 53.6 °F - 51.8 °F 94% 30.16 in 10.0 mi Calm Calm - N/A   Clear
1:33 AM 53.6 °F - 50.0 °F 88% 30.16 in 10.0 mi Calm Calm - N/A   Clear
2:13 AM 53.6 °F - 51.8 °F 94% 30.16 in 10.0 mi Calm Calm - N/A   Clear
2:33 AM 53.6 °F - 51.8 °F 94% 30.16 in 10.0 mi South 4.6 mph - N/A   Clear
2:53 AM 53.6 °F - 50.0 °F 88% 30.16 in 10.0 mi Calm Calm - N/A   Clear
3:13 AM 51.8 °F - 50.0 °F 94% 30.17 in 10.0 mi Calm Calm - N/A   Clear
3:33 AM 51.8 °F - 50.0 °F 94% 30.17 in 10.0 mi Calm Calm - N/A   Clear
4:33 AM 51.8 °F - 50.0 °F 94% 30.18 in 10.0 mi Calm Calm - N/A   Clear
4:53 AM 51.8 °F - 50.0 °F 94% 30.18 in 10.0 mi South 5.8 mph - N/A   Clear
5:13 AM 51.8 °F - 50.0 °F 94% 30.19 in 10.0 mi Calm Calm - N/A   Clear
5:33 AM 51.8 °F - 50.0 °F 94% 30.19 in 10.0 mi Calm Calm - N/A   Clear
5:53 AM 51.8 °F - 48.2 °F 88% 30.20 in 10.0 mi Calm Calm - N/A   Clear
6:13 AM 50.0 °F - 48.2 °F 94% 30.20 in 10.0 mi Calm Calm - N/A   Clear
6:33 AM 48.2 °F - 48.2 °F 100% 30.21 in 10.0 mi Calm Calm - N/A   Clear
6:53 AM 48.2 °F - 46.4 °F 93% 30.21 in 10.0 mi Calm Calm - N/A   Clear
7:13 AM 50.0 °F - 48.2 °F 94% 30.23 in 10.0 mi Calm Calm - N/A   Clear
7:33 AM 51.8 °F - 50.0 °F 94% 30.23 in 10.0 mi Calm Calm - N/A   Clear
7:53 AM 53.6 °F - 51.8 °F 94% 30.24 in 10.0 mi Calm Calm - N/A   Clear
8:13 AM 55.4 °F - 53.6 °F 94% 30.24 in 10.0 mi Calm Calm - N/A   Clear
8:33 AM 57.2 °F - 55.4 °F 94% 30.24 in 10.0 mi Calm Calm - N/A   Clear
8:53 AM 60.8 °F - 55.4 °F 82% 30.24 in 10.0 mi Calm Calm - N/A   Clear
9:13 AM 62.6 °F - 55.4 °F 77% 30.25 in 10.0 mi Calm Calm - N/A   Clear
9:33 AM 64.4 °F - 55.4 °F 73% 30.26 in 10.0 mi Calm Calm - N/A   Clear
9:53 AM 66.2 °F - 55.4 °F 68% 30.26 in 10.0 mi Calm Calm - N/A   Clear
10:13 AM 68.0 °F - 57.2 °F 68% 30.27 in 10.0 mi Calm Calm - N/A   Clear
10:33 AM 69.8 °F - 55.4 °F 60% 30.28 in 10.0 mi Calm Calm - N/A   Clear
10:53 AM 71.6 °F - 57.2 °F 60% 30.28 in 10.0 mi Calm Calm - N/A   Clear
11:13 AM 71.6 °F - 57.2 °F 60% 30.28 in 10.0 mi Calm Calm - N/A   Clear
11:33 AM 73.4 °F - 71.6 °F 94% 30.28 in 10.0 mi Calm Calm - N/A   Clear
11:53 AM 75.2 °F - 62.6 °F 65% 30.28 in 10.0 mi Calm Calm - N/A   Clear
12:13 PM 75.2 °F - 71.6 °F 89% 30.27 in 10.0 mi Calm Calm - N/A   Clear
12:33 PM 75.2 °F - 62.6 °F 65% 30.28 in 10.0 mi Calm Calm - N/A   Clear
12:53 PM 77.0 °F - 66.2 °F 69% 30.27 in 10.0 mi Calm Calm - N/A   Clear
1:12 PM 77.0 °F - 64.4 °F 65% 30.27 in 10.0 mi Calm Calm - N/A   Clear
1:33 PM 78.8 °F - 64.4 °F 61% 30.27 in 10.0 mi Calm Calm - N/A   Clear
1:54 PM 78.8 °F - 59.0 °F 51% 30.27 in 10.0 mi Calm Calm - N/A   Clear
2:13 PM 78.8 °F - 55.4 °F 44% 30.27 in 10.0 mi Calm Calm - N/A   Clear
2:33 PM 80.6 °F 80.8 °F 57.2 °F 45% 30.27 in 10.0 mi Calm Calm - N/A   Clear
2:54 PM 80.6 °F 80.8 °F 57.2 °F 45% 30.27 in 10.0 mi Calm Calm - N/A   Clear
3:13 PM 80.6 °F 80.8 °F 57.2 °F 45% 30.26 in 10.0 mi Calm Calm - N/A   Scattered Clouds
3:33 PM 82.4 °F 82.0 °F 57.2 °F 42% 30.27 in 10.0 mi Calm Calm - N/A   Clear
3:53 PM 82.4 °F 87.2 °F 71.6 °F 70% 30.26 in 10.0 mi Calm Calm - N/A   Clear
4:13 PM 82.4 °F 84.6 °F 66.2 °F 58% 30.27 in 10.0 mi NE 4.6 mph - N/A   Clear
4:33 PM 82.4 °F 83.9 °F 64.4 °F 54% 30.27 in 10.0 mi NE 3.5 mph - N/A   Clear
4:53 PM 82.4 °F 82.9 °F 60.8 °F 48% 30.27 in 10.0 mi North 5.8 mph - N/A   Clear
5:14 PM 82.4 °F 83.4 °F 62.6 °F 51% 30.27 in 10.0 mi Calm Calm - N/A   Clear
5:33 PM 82.4 °F 84.6 °F 66.2 °F 58% 30.27 in 10.0 mi Calm Calm - N/A   Clear
5:53 PM 82.4 °F 83.9 °F 64.4 °F 54% 30.27 in 10.0 mi Calm Calm - N/A   Clear
6:14 PM 80.6 °F 82.3 °F 64.4 °F 58% 30.27 in 10.0 mi Calm Calm - N/A   Clear
6:33 PM 80.6 °F 82.3 °F 64.4 °F 58% 30.27 in 10.0 mi Calm Calm - N/A   Clear
6:53 PM 78.8 °F - 64.4 °F 61% 30.28 in 10.0 mi Calm Calm - N/A   Clear
7:14 PM 77.0 °F - 66.2 °F 69% 30.28 in 10.0 mi Calm Calm - N/A   Clear
7:33 PM 73.4 °F - 62.6 °F 69% 30.28 in 10.0 mi Calm Calm - N/A   Clear
7:53 PM 69.8 °F - 57.2 °F 64% 30.28 in 10.0 mi Calm Calm - N/A   Clear
8:13 PM 64.4 °F - 57.2 °F 77% 30.28 in 10.0 mi Calm Calm - N/A   Clear
8:33 PM 62.6 °F - 57.2 °F 82% 30.29 in 10.0 mi Calm Calm - N/A   Clear
8:53 PM 60.8 °F - 53.6 °F 77% 30.30 in 7.0 mi Calm Calm - N/A   Clear
9:13 PM 60.8 °F - 53.6 °F 77% 30.30 in 10.0 mi Calm Calm - N/A   Clear
9:33 PM 57.2 °F - 53.6 °F 88% 30.30 in 10.0 mi Calm Calm - N/A   Clear
9:53 PM 57.2 °F - 53.6 °F 88% 30.30 in 10.0 mi Calm Calm - N/A   Clear
10:13 PM 57.2 °F - 53.6 °F 88% 30.30 in 10.0 mi Calm Calm - N/A   Clear
10:33 PM 55.4 °F - 51.8 °F 88% 30.30 in 10.0 mi Calm Calm - N/A   Clear
10:53 PM 55.4 °F - 53.6 °F 94% 30.30 in 10.0 mi Calm Calm - N/A   Clear
11:13 PM 57.2 °F - 53.6 °F 88% 30.30 in 7.0 mi Calm Calm - N/A   Clear
11:32 PM 55.4 °F - 51.8 °F 88% 30.30 in 10.0 mi Calm Calm - N/A   Clear
11:53 PM 55.4 °F - 51.8 °F 88% 30.30 in 5.0 mi Calm Calm - N/A   Clear